Time;durP1;ratioP1;P1;durP2;ratioP2;P2;SDS_P1;SDS_P2;PMS_P1;PMS_P2;Temp;Humidity;BMP_temperature;BMP_pressure;BME280_temperature;BME280_humidity;BME280_pressure;Samples;Min_cycle;Max_cycle;Signal;HPM_P1;HPM_P2
2023/04/14 00:00:59;;;;;;;9.65;5.15;;;3.70;99.90;;;;;;5058930;28;20024;-64
2023/04/14 00:03:25;;;;;;;7.55;4.07;;;3.70;99.90;;;;;;5045659;28;20043;-63
2023/04/14 00:05:50;;;;;;;7.45;3.92;;;3.60;99.90;;;;;;5053996;28;20115;-66
2023/04/14 00:08:16;;;;;;;12.95;5.50;;;3.60;99.90;;;;;;5048762;28;20086;-63
2023/04/14 00:10:41;;;;;;;13.48;5.03;;;3.60;99.90;;;;;;5051951;28;20036;-64
2023/04/14 00:13:07;;;;;;;10.05;4.80;;;3.60;99.90;;;;;;5048715;28;20033;-64
2023/04/14 00:15:33;;;;;;;10.52;4.90;;;3.60;99.90;;;;;;5046506;28;20028;-64
2023/04/14 00:17:58;;;;;;;10.88;4.72;;;3.60;99.90;;;;;;5063156;28;20515;-65
2023/04/14 00:20:24;;;;;;;9.77;4.30;;;3.60;99.90;;;;;;5058070;28;20032;-62
2023/04/14 00:22:50;;;;;;;8.32;4.25;;;3.60;99.90;;;;;;5051306;28;20397;-68
2023/04/14 00:25:16;;;;;;;31.83;4.70;;;3.60;99.90;;;;;;5037769;28;20435;-64
2023/04/14 00:27:41;;;;;;;10.43;3.50;;;3.50;99.90;;;;;;5033813;28;20040;-64
2023/04/14 00:30:08;;;;;;;8.70;4.20;;;3.50;99.90;;;;;;5060475;28;20032;-63
2023/04/14 00:32:33;;;;;;;10.02;5.15;;;3.50;99.90;;;;;;5063606;28;20111;-65
2023/04/14 00:35:02;;;;;;;8.77;5.15;;;3.40;99.90;;;;;;5064148;28;20090;-64
2023/04/14 00:37:27;;;;;;;10.75;5.75;;;3.50;99.90;;;;;;5053201;28;20110;-64
2023/04/14 00:39:53;;;;;;;9.98;5.38;;;3.50;99.90;;;;;;5051824;28;20032;-63
2023/04/14 00:42:18;;;;;;;18.10;3.95;;;3.50;99.90;;;;;;5035554;28;20025;-66
2023/04/14 00:44:46;;;;;;;6.63;3.58;;;3.50;99.90;;;;;;5051784;28;20124;-63
2023/04/14 00:47:12;;;;;;;8.10;4.47;;;3.50;99.90;;;;;;5066035;28;20033;-64
2023/04/14 00:49:38;;;;;;;8.35;4.90;;;3.50;99.90;;;;;;5053422;28;20036;-64
2023/04/14 00:52:04;;;;;;;11.70;4.75;;;3.50;99.90;;;;;;5061801;28;20068;-64
2023/04/14 00:54:31;;;;;;;13.90;4.68;;;3.60;99.90;;;;;;5058332;28;20033;-64
2023/04/14 00:56:57;;;;;;;9.98;4.22;;;3.50;99.90;;;;;;5044277;28;20037;-67
2023/04/14 00:59:24;;;;;;;8.50;4.25;;;3.50;99.90;;;;;;5043017;28;20036;-63
2023/04/14 01:01:50;;;;;;;9.40;5.15;;;3.40;99.90;;;;;;5059620;28;20044;-67
2023/04/14 01:04:17;;;;;;;9.02;4.40;;;3.50;99.90;;;;;;5066510;28;20043;-63
2023/04/14 01:06:42;;;;;;;8.65;4.50;;;3.40;99.90;;;;;;5065736;28;20044;-63
2023/04/14 01:09:09;;;;;;;8.68;4.20;;;3.40;99.90;;;;;;5051527;28;20071;-65
2023/04/14 01:11:37;;;;;;;8.60;4.53;;;3.40;99.90;;;;;;5052593;28;20115;-64
2023/04/14 01:14:30;;;;;;;9.00;4.85;;;3.40;99.90;;;;;;5062744;28;20048;-64
2023/04/14 01:17:01;;;;;;;7.55;3.95;;;3.40;99.90;;;;;;5047984;28;20204;-64
2023/04/14 01:19:37;;;;;;;9.13;4.55;;;3.50;99.90;;;;;;5057568;28;20029;-63
2023/04/14 01:22:05;;;;;;;8.02;4.03;;;3.50;99.90;;;;;;5061106;28;20584;-65
2023/04/14 01:25:05;;;;;;;9.52;4.25;;;3.50;99.90;;;;;;5059921;28;20025;-63
2023/04/14 01:27:53;;;;;;;8.57;4.10;;;3.50;99.90;;;;;;5002510;28;20450;-64
2023/04/14 01:30:41;;;;;;;8.95;4.07;;;3.50;99.90;;;;;;5042372;28;20029;-64
2023/04/14 01:33:12;;;;;;;9.20;4.20;;;3.50;99.90;;;;;;5069203;28;20042;-64
2023/04/14 01:35:40;;;;;;;;;;;3.50;99.90;;;;;;5059674;28;20677;-64
2023/04/14 01:38:11;;;;;;;7.43;3.60;;;3.50;99.90;;;;;;5050836;28;19967;-63
2023/04/14 01:40:38;;;;;;;7.45;3.85;;;3.50;99.90;;;;;;5049811;28;20033;-64
2023/04/14 01:43:09;;;;;;;8.60;4.18;;;3.50;99.90;;;;;;5051014;28;20028;-64
2023/04/14 01:45:43;;;;;;;6.35;3.50;;;3.50;99.90;;;;;;5051695;28;20124;-64
2023/04/14 01:48:10;;;;;;;7.35;3.78;;;3.60;99.90;;;;;;5048159;28;20044;-64
2023/04/14 01:50:36;;;;;;;8.75;4.10;;;3.50;99.90;;;;;;5049952;28;20033;-63
2023/04/14 01:53:05;;;;;;;9.73;3.75;;;3.60;99.90;;;;;;5050698;28;20029;-65
2023/04/14 01:55:34;;;;;;;7.93;3.95;;;3.60;99.90;;;;;;5041540;28;20433;-62
2023/04/14 01:58:01;;;;;;;8.32;4.30;;;3.60;99.90;;;;;;5042819;28;20076;-62
2023/04/14 02:00:27;;;;;;;7.78;4.13;;;3.50;99.90;;;;;;5037203;28;20120;-63
2023/04/14 02:02:54;;;;;;;7.68;4.10;;;3.50;99.90;;;;;;5033752;28;20032;-66
2023/04/14 02:05:21;;;;;;;10.32;4.38;;;3.50;99.90;;;;;;5050542;28;20481;-63
2023/04/14 02:07:48;;;;;;;8.98;4.57;;;3.50;99.90;;;;;;5048837;28;20413;-64
2023/04/14 02:10:19;;;;;;;8.23;4.00;;;3.50;99.90;;;;;;5045931;28;20112;-63
2023/04/14 02:12:47;;;;;;;9.23;4.43;;;3.40;99.90;;;;;;5042088;28;20033;-63
2023/04/14 02:15:16;;;;;;;8.35;4.60;;;3.30;99.90;;;;;;5057030;28;20107;-64
2023/04/14 02:17:43;;;;;;;9.43;4.28;;;3.20;99.90;;;;;;5054761;28;20053;-63
2023/04/14 02:20:09;;;;;;;22.15;4.55;;;3.20;99.90;;;;;;5051960;28;20089;-63
2023/04/14 02:22:35;;;;;;;96.20;5.63;;;3.10;99.90;;;;;;5049407;28;20516;-63
2023/04/14 02:25:01;;;;;;;38.72;4.75;;;3.20;99.90;;;;;;5049852;28;20033;-64
2023/04/14 02:27:38;;;;;;;12.43;5.22;;;3.20;99.90;;;;;;5050040;28;20029;-64
2023/04/14 02:30:15;;;;;;;15.75;5.15;;;3.10;99.90;;;;;;5043983;28;20021;-64
2023/04/14 02:32:45;;;;;;;10.50;4.43;;;3.20;99.90;;;;;;5047687;28;20055;-64
2023/04/14 02:35:17;;;;;;;7.65;3.85;;;3.20;99.90;;;;;;5047939;28;20021;-63
2023/04/14 02:37:49;;;;;;;23.45;4.57;;;3.20;99.90;;;;;;5045387;28;20656;-64
2023/04/14 02:40:20;;;;;;;10.35;4.70;;;3.20;99.90;;;;;;5046917;28;20891;-64
2023/04/14 02:42:50;;;;;;;9.70;4.70;;;3.20;99.90;;;;;;5046048;28;20541;-63
2023/04/14 02:45:25;;;;;;;49.78;5.38;;;3.20;99.90;;;;;;5048826;28;20116;-63
2023/04/14 02:47:54;;;;;;;8.57;4.45;;;3.30;99.90;;;;;;5050449;28;20044;-63
2023/04/14 02:50:20;;;;;;;11.27;5.30;;;3.30;99.90;;;;;;5047769;28;20139;-64
2023/04/14 02:52:50;;;;;;;7.15;4.22;;;3.30;99.90;;;;;;5035558;28;20035;-63
2023/04/14 02:55:18;;;;;;;12.95;5.85;;;3.30;99.90;;;;;;5049671;28;20033;-63
2023/04/14 02:57:45;;;;;;;11.82;5.55;;;3.30;99.90;;;;;;5049383;28;20080;-65
2023/04/14 03:00:12;;;;;;;12.40;5.68;;;3.30;99.90;;;;;;5047111;28;20078;-64
2023/04/14 03:02:38;;;;;;;11.88;5.30;;;3.30;99.90;;;;;;5048361;28;20392;-65
2023/04/14 03:05:05;;;;;;;11.98;5.45;;;3.30;99.90;;;;;;5062875;28;20032;-63
2023/04/14 03:07:32;;;;;;;13.43;6.43;;;3.40;99.90;;;;;;5052873;28;20036;-63
2023/04/14 03:09:58;;;;;;;13.48;5.93;;;3.40;99.90;;;;;;5055874;28;20032;-67
2023/04/14 03:12:24;;;;;;;11.10;5.82;;;3.50;99.90;;;;;;5047573;28;20075;-64
2023/04/14 03:14:51;;;;;;;18.15;7.90;;;3.50;99.90;;;;;;5046632;28;20041;-64
2023/04/14 03:17:19;;;;;;;20.45;8.48;;;3.60;99.90;;;;;;5041063;28;20477;-62
2023/04/14 03:19:47;;;;;;;18.63;8.55;;;3.60;99.90;;;;;;5050275;28;20037;-63
2023/04/14 03:22:14;;;;;;;18.08;6.72;;;3.70;99.90;;;;;;5049042;28;20041;-64
2023/04/14 03:24:42;;;;;;;17.00;7.32;;;3.60;99.90;;;;;;5049429;28;20444;-64
2023/04/14 03:27:13;;;;;;;17.35;8.35;;;3.50;99.90;;;;;;5049205;28;20036;-63
2023/04/14 03:29:43;;;;;;;29.52;10.63;;;3.40;99.90;;;;;;5049091;28;20104;-64
2023/04/14 03:32:10;;;;;;;24.05;10.52;;;3.50;99.90;;;;;;5033656;28;20033;-63
2023/04/14 03:34:41;;;;;;;25.35;10.32;;;3.60;99.90;;;;;;5029618;28;20040;-63
2023/04/14 03:37:08;;;;;;;26.60;11.02;;;3.70;99.90;;;;;;5028840;28;20377;-64
2023/04/14 03:39:37;;;;;;;22.88;10.35;;;3.80;99.90;;;;;;5046440;28;20175;-65
2023/04/14 03:42:06;;;;;;;27.20;11.15;;;3.90;99.90;;;;;;5027943;28;20549;-67
2023/04/14 03:44:35;;;;;;;28.00;10.48;;;3.90;99.90;;;;;;5028990;28;20042;-64
2023/04/14 03:47:02;;;;;;;27.27;11.18;;;3.90;99.90;;;;;;5043874;28;20029;-67
2023/04/14 03:49:32;;;;;;;23.80;10.27;;;3.90;99.90;;;;;;5029583;28;20045;-65
2023/04/14 03:52:07;;;;;;;23.48;10.23;;;3.80;99.90;;;;;;5044275;28;20057;-64
2023/04/14 03:54:35;;;;;;;28.75;11.20;;;3.80;99.90;;;;;;5050311;28;20048;-64
2023/04/14 03:57:05;;;;;;;20.60;9.95;;;3.80;99.90;;;;;;5059034;28;20036;-67
2023/04/14 03:59:32;;;;;;;31.92;10.52;;;3.80;99.90;;;;;;5048993;28;20116;-67
2023/04/14 04:01:59;;;;;;;24.17;10.68;;;3.80;99.90;;;;;;5033753;28;20029;-62
2023/04/14 04:04:25;;;;;;;25.08;11.05;;;3.80;99.90;;;;;;5047595;28;20021;-63
2023/04/14 04:06:52;;;;;;;25.50;11.02;;;3.80;99.90;;;;;;5037532;28;20037;-61
2023/04/14 04:09:20;;;;;;;26.40;10.40;;;3.80;99.90;;;;;;5040631;28;20511;-61
2023/04/14 04:11:48;;;;;;;27.98;11.63;;;3.70;99.90;;;;;;5048257;28;20108;-61
2023/04/14 04:14:16;;;;;;;25.65;10.93;;;3.70;99.90;;;;;;5044687;28;20072;-62
2023/04/14 04:16:43;;;;;;;29.77;11.40;;;3.70;99.90;;;;;;5047169;28;20482;-61
2023/04/14 04:19:12;;;;;;;31.83;12.30;;;3.80;99.90;;;;;;5046403;28;20108;-63
2023/04/14 04:21:41;;;;;;;20.17;8.70;;;3.70;99.90;;;;;;5045036;28;20686;-63
2023/04/14 04:24:08;;;;;;;28.00;12.45;;;3.80;99.90;;;;;;5045311;28;20029;-62
2023/04/14 04:26:34;;;;;;;30.98;12.70;;;3.70;99.90;;;;;;5043596;28;20038;-62
2023/04/14 04:29:02;;;;;;;27.77;12.10;;;3.70;99.90;;;;;;5057943;28;20044;-63
2023/04/14 04:31:29;;;;;;;37.42;13.05;;;3.70;99.90;;;;;;5052705;28;20029;-62
2023/04/14 04:33:57;;;;;;;34.42;13.02;;;3.70;99.90;;;;;;5048205;28;20377;-63
2023/04/14 04:36:25;;;;;;;32.67;13.07;;;3.70;99.90;;;;;;5047386;28;20314;-64
2023/04/14 04:38:51;;;;;;;124.47;12.25;;;3.70;99.90;;;;;;5047715;28;20086;-64
2023/04/14 04:41:24;;;;;;;28.63;10.63;;;3.70;99.90;;;;;;5046509;28;20041;-63
2023/04/14 04:43:50;;;;;;;22.95;9.43;;;3.60;99.90;;;;;;5048356;28;20028;-63
2023/04/14 04:46:54;;;;;;;23.20;10.07;;;3.50;99.90;;;;;;5046148;28;20025;-61
2023/04/14 04:49:20;;;;;;;31.40;10.02;;;3.60;99.90;;;;;;5047406;28;20031;-61
2023/04/14 04:51:46;;;;;;;25.60;9.90;;;3.50;99.90;;;;;;5037070;28;20120;-62
2023/04/14 04:54:12;;;;;;;77.93;10.73;;;3.50;99.90;;;;;;5040649;28;20044;-62
2023/04/14 04:56:38;;;;;;;36.35;11.27;;;3.50;99.90;;;;;;5038060;28;20037;-65
2023/04/14 04:59:03;;;;;;;24.80;11.10;;;3.50;99.90;;;;;;5027907;28;20037;-64
2023/04/14 05:01:29;;;;;;;34.42;12.05;;;3.50;99.90;;;;;;5038335;28;20064;-63
2023/04/14 05:03:55;;;;;;;30.25;12.60;;;3.50;99.90;;;;;;5046868;28;20036;-62
2023/04/14 05:06:21;;;;;;;27.58;11.32;;;3.50;99.90;;;;;;5040302;28;20028;-62
2023/04/14 05:08:51;;;;;;;30.73;11.13;;;3.50;99.90;;;;;;5033578;28;20061;-62
2023/04/14 05:11:16;;;;;;;28.40;12.25;;;3.50;99.90;;;;;;5046743;28;20480;-61
2023/04/14 05:13:42;;;;;;;27.48;10.73;;;3.50;99.90;;;;;;5047226;28;20037;-62
2023/04/14 05:16:09;;;;;;;26.42;10.55;;;3.40;99.90;;;;;;5047252;28;20037;-63
2023/04/14 05:18:35;;;;;;;26.92;10.43;;;3.50;99.90;;;;;;5044256;28;20378;-63
2023/04/14 05:21:05;;;;;;;25.70;8.80;;;3.60;99.90;;;;;;5047408;28;20127;-64
2023/04/14 05:23:32;;;;;;;26.15;9.63;;;3.60;99.90;;;;;;5031093;28;20041;-61
2023/04/14 05:25:59;;;;;;;21.08;9.88;;;3.60;99.90;;;;;;5047246;28;20040;-63
2023/04/14 05:28:24;;;;;;;23.48;10.20;;;3.60;99.90;;;;;;5045770;28;20035;-61
2023/04/14 05:30:50;;;;;;;21.67;9.57;;;3.60;99.90;;;;;;5046952;28;20448;-61
2023/04/14 05:33:16;;;;;;;25.15;9.68;;;3.60;99.90;;;;;;5043396;28;20079;-63
2023/04/14 05:35:45;;;;;;;20.17;9.05;;;3.60;99.90;;;;;;5047572;28;20025;-64
2023/04/14 05:38:11;;;;;;;23.45;9.82;;;3.60;99.90;;;;;;5044756;28;20095;-61
2023/04/14 05:40:37;;;;;;;22.70;8.65;;;3.60;99.90;;;;;;5046292;28;20343;-62
2023/04/14 05:43:03;;;;;;;22.95;9.32;;;3.60;99.90;;;;;;5028007;28;20116;-62
2023/04/14 05:45:28;;;;;;;24.55;8.93;;;3.70;99.90;;;;;;5026862;28;20192;-63
2023/04/14 05:47:54;;;;;;;23.40;8.95;;;3.70;99.90;;;;;;5032416;28;20116;-62
2023/04/14 05:50:21;;;;;;;22.23;8.63;;;3.70;99.90;;;;;;5046401;28;20040;-63
2023/04/14 05:52:50;;;;;;;21.42;8.05;;;3.70;99.90;;;;;;5046568;28;20041;-62
2023/04/14 05:55:16;;;;;;;21.50;8.27;;;3.70;99.90;;;;;;5046625;28;20524;-63
2023/04/14 05:57:42;;;;;;;26.98;8.75;;;3.80;99.90;;;;;;5047422;28;20039;-64
2023/04/14 06:00:08;;;;;;;16.10;7.70;;;3.90;99.90;;;;;;5044381;28;20517;-64
2023/04/14 06:02:34;;;;;;;21.80;8.02;;;3.90;99.90;;;;;;5044973;28;20037;-63
2023/04/14 06:05:00;;;;;;;20.33;7.05;;;3.90;99.90;;;;;;5046712;28;20041;-62
2023/04/14 06:07:26;;;;;;;18.83;7.47;;;4.00;99.90;;;;;;5046890;28;20083;-63
2023/04/14 06:09:52;;;;;;;20.23;7.28;;;4.10;99.90;;;;;;5047952;28;20185;-63
2023/04/14 06:12:18;;;;;;;18.02;7.53;;;4.20;99.90;;;;;;5050296;28;20033;-63
2023/04/14 06:14:44;;;;;;;21.80;8.00;;;4.20;99.90;;;;;;5050074;28;20037;-63
2023/04/14 06:17:09;;;;;;;17.60;6.72;;;4.30;99.90;;;;;;5050647;28;20041;-65
2023/04/14 06:19:35;;;;;;;19.73;7.55;;;4.30;99.90;;;;;;5050539;28;20048;-62
2023/04/14 06:22:00;;;;;;;14.45;6.65;;;4.40;99.90;;;;;;5049469;28;20061;-61
2023/04/14 06:24:26;;;;;;;21.38;8.00;;;4.40;99.90;;;;;;5049966;28;20108;-63
2023/04/14 06:26:52;;;;;;;24.67;8.55;;;4.50;99.90;;;;;;5050679;28;20048;-62
2023/04/14 06:29:17;;;;;;;17.38;7.75;;;4.60;99.90;;;;;;5046902;28;20036;-62
2023/04/14 06:31:43;;;;;;;17.40;7.35;;;4.60;99.90;;;;;;5049853;28;20390;-62
2023/04/14 06:34:09;;;;;;;19.35;8.05;;;4.70;99.90;;;;;;5050430;28;20082;-62
2023/04/14 06:36:35;;;;;;;17.70;7.20;;;4.90;99.90;;;;;;5048619;28;20481;-63
2023/04/14 06:39:03;;;;;;;18.08;7.78;;;5.00;99.90;;;;;;5050530;28;20029;-63
2023/04/14 06:41:29;;;;;;;21.20;7.60;;;5.10;99.90;;;;;;5049578;28;20056;-63
2023/04/14 06:43:55;;;;;;;20.60;7.50;;;5.00;99.90;;;;;;5048475;28;20060;-61
2023/04/14 06:46:20;;;;;;;20.17;7.80;;;5.00;99.90;;;;;;5048962;28;20056;-62
2023/04/14 06:48:46;;;;;;;23.30;8.10;;;5.00;99.90;;;;;;5049308;28;20040;-63
2023/04/14 06:51:13;;;;;;;22.10;7.05;;;5.00;99.90;;;;;;5042858;28;20052;-67
2023/04/14 06:53:38;;;;;;;23.33;7.80;;;5.10;99.90;;;;;;5050315;28;20091;-62
2023/04/14 06:56:05;;;;;;;23.27;7.70;;;5.20;99.90;;;;;;5049825;28;20084;-62
2023/04/14 06:58:31;;;;;;;27.48;7.93;;;5.20;99.90;;;;;;5048589;28;20036;-64
2023/04/14 07:01:01;;;;;;;18.58;6.53;;;5.40;99.90;;;;;;5047426;28;20055;-62
2023/04/14 07:03:33;;;;;;;23.20;8.38;;;5.30;99.90;;;;;;5048098;28;20445;-62
2023/04/14 07:06:06;;;;;;;22.95;7.95;;;5.30;99.90;;;;;;5048705;28;20048;-62
2023/04/14 07:08:33;;;;;;;23.55;7.57;;;5.40;99.90;;;;;;5049099;28;20165;-64
2023/04/14 07:11:04;;;;;;;20.67;8.48;;;5.60;99.90;;;;;;5049538;28;20488;-64
2023/04/14 07:13:30;;;;;;;;;;;5.80;99.90;;;;;;5049209;28;20107;-62
2023/04/14 07:15:55;;;;;;;23.13;7.93;;;5.80;99.90;;;;;;5048528;28;20254;-63
2023/04/14 07:18:21;;;;;;;21.20;7.00;;;5.80;99.90;;;;;;5047030;28;20453;-63
2023/04/14 07:20:53;;;;;;;21.45;7.95;;;5.80;99.90;;;;;;5049173;28;20075;-61
2023/04/14 07:23:20;;;;;;;18.45;7.18;;;6.00;99.90;;;;;;5050100;28;20044;-64
2023/04/14 07:25:50;;;;;;;21.00;6.82;;;6.20;99.90;;;;;;5046798;28;20037;-62
2023/04/14 07:28:16;;;;;;;;;;;6.30;99.90;;;;;;5049289;28;20037;-63
2023/04/14 07:30:42;;;;;;;21.45;6.53;;;6.20;99.90;;;;;;5046709;28;19927;-63
2023/04/14 07:33:07;;;;;;;19.85;6.47;;;6.40;99.90;;;;;;5043776;28;20486;-62
2023/04/14 07:35:33;;;;;;;21.45;6.50;;;6.30;99.90;;;;;;5048593;28;20155;-62
2023/04/14 07:37:59;;;;;;;18.88;6.32;;;6.60;99.90;;;;;;5049535;28;20033;-63
2023/04/14 07:40:25;;;;;;;18.23;6.20;;;6.60;99.90;;;;;;5048409;28;20033;-62
2023/04/14 07:42:51;;;;;;;14.27;6.25;;;6.60;99.90;;;;;;5049272;28;20040;-63
2023/04/14 07:45:17;;;;;;;23.02;7.60;;;6.70;99.90;;;;;;5047763;28;20029;-64
2023/04/14 07:47:43;;;;;;;19.90;7.10;;;6.50;99.90;;;;;;5049063;28;20041;-63
2023/04/14 07:50:09;;;;;;;20.77;6.20;;;6.50;99.90;;;;;;5048991;28;20037;-62
2023/04/14 07:52:35;;;;;;;20.17;6.07;;;6.50;99.90;;;;;;5047704;28;20041;-63
2023/04/14 07:55:02;;;;;;;16.90;6.10;;;6.60;99.90;;;;;;5048831;28;20029;-63
2023/04/14 07:57:27;;;;;;;15.60;6.43;;;6.80;99.90;;;;;;5048194;28;20078;-63
2023/04/14 07:59:56;;;;;;;12.80;5.22;;;6.90;99.90;;;;;;5046752;28;20037;-62
2023/04/14 08:02:21;;;;;;;16.00;6.03;;;7.00;99.90;;;;;;5045071;28;20029;-63
2023/04/14 08:04:47;;;;;;;17.30;5.82;;;7.10;99.90;;;;;;5032925;28;20037;-63
2023/04/14 08:07:13;;;;;;;17.48;6.50;;;7.20;99.90;;;;;;5041992;28;20111;-63
2023/04/14 08:09:39;;;;;;;13.98;5.68;;;7.40;99.90;;;;;;5045387;28;20028;-63
2023/04/14 08:12:04;;;;;;;14.85;5.80;;;7.40;99.90;;;;;;5048555;28;20036;-61
2023/04/14 08:14:30;;;;;;;18.67;5.55;;;7.40;99.90;;;;;;5045527;28;20473;-62
2023/04/14 08:16:56;;;;;;;12.10;5.35;;;7.30;99.90;;;;;;5034925;28;20046;-61
2023/04/14 08:19:22;;;;;;;20.90;6.38;;;7.60;99.90;;;;;;5045665;28;20060;-61
2023/04/14 08:21:47;;;;;;;18.15;5.60;;;7.70;99.90;;;;;;5047509;28;20028;-61
2023/04/14 08:24:13;;;;;;;15.70;4.68;;;7.90;99.90;;;;;;5047283;28;21038;-62
2023/04/14 08:26:39;;;;;;;16.20;4.65;;;8.10;99.90;;;;;;5046679;28;20060;-62
2023/04/14 08:29:05;;;;;;;12.73;3.72;;;8.10;99.90;;;;;;5046099;28;20029;-61
2023/04/14 08:31:32;;;;;;;10.45;3.80;;;8.30;99.90;;;;;;5045835;28;20124;-61
2023/04/14 08:33:57;;;;;;;17.30;3.63;;;8.50;99.90;;;;;;5047192;28;20029;-60
2023/04/14 08:36:23;;;;;;;13.05;3.88;;;8.40;99.90;;;;;;5044867;28;20037;-63
2023/04/14 08:38:49;;;;;;;17.25;3.53;;;8.20;99.90;;;;;;5047455;28;20029;-63
2023/04/14 08:41:18;;;;;;;13.95;2.88;;;8.30;99.90;;;;;;5048179;28;20376;-64
2023/04/14 08:43:44;;;;;;;11.68;3.13;;;8.40;99.90;;;;;;5029103;28;20051;-62
2023/04/14 08:46:10;;;;;;;12.52;2.70;;;8.60;99.90;;;;;;5048428;28;20029;-62
2023/04/14 08:48:37;;;;;;;9.57;2.88;;;8.70;99.90;;;;;;5042460;28;20288;-63
2023/04/14 08:51:14;;;;;;;9.52;2.30;;;8.70;99.90;;;;;;5047123;28;20131;-64
2023/04/14 08:53:43;;;;;;;9.43;1.85;;;8.80;99.90;;;;;;5045650;28;20171;-63
2023/04/14 08:56:12;;;;;;;11.38;2.45;;;8.90;99.90;;;;;;5046056;28;20036;-61
2023/04/14 08:58:38;;;;;;;9.32;1.88;;;9.10;99.90;;;;;;5044953;28;20178;-62
2023/04/14 09:01:04;;;;;;;6.57;1.80;;;9.30;99.90;;;;;;5046974;28;20039;-63
2023/04/14 09:03:30;;;;;;;10.55;2.33;;;9.30;99.90;;;;;;5044934;28;20345;-62
2023/04/14 09:05:57;;;;;;;8.68;2.17;;;9.30;99.90;;;;;;5044076;28;20029;-63
2023/04/14 09:08:23;;;;;;;8.25;1.98;;;9.30;99.90;;;;;;5044827;28;20436;-62
2023/04/14 09:10:50;;;;;;;8.77;2.72;;;9.30;99.90;;;;;;5044676;28;20036;-62
2023/04/14 09:13:18;;;;;;;9.85;2.22;;;9.50;99.90;;;;;;5031804;28;20048;-62
2023/04/14 09:15:43;;;;;;;6.78;2.20;;;9.60;99.90;;;;;;5045267;28;20112;-62
2023/04/14 09:18:10;;;;;;;11.75;2.58;;;9.60;99.90;;;;;;5051605;28;20560;-61
2023/04/14 09:20:37;;;;;;;12.13;2.40;;;9.70;99.90;;;;;;5031693;28;20104;-61
2023/04/14 09:23:03;;;;;;;11.18;2.35;;;9.70;99.90;;;;;;5047677;28;20040;-61
2023/04/14 09:25:29;;;;;;;9.27;1.95;;;9.80;99.90;;;;;;5047047;28;20133;-61
2023/04/14 09:27:55;;;;;;;9.52;2.22;;;9.70;99.90;;;;;;5041338;28;20604;-61
2023/04/14 09:30:21;;;;;;;7.82;2.40;;;9.80;99.90;;;;;;5028752;28;20033;-63
2023/04/14 09:32:52;;;;;;;9.80;2.45;;;9.80;99.90;;;;;;5042694;28;20779;-61
2023/04/14 09:35:18;;;;;;;9.65;2.60;;;9.70;99.90;;;;;;5045666;28;20627;-60
2023/04/14 09:37:46;;;;;;;16.33;3.03;;;9.80;99.90;;;;;;5045749;28;20120;-60
2023/04/14 09:40:32;;;;;;;9.20;2.50;;;9.70;99.90;;;;;;5047612;28;20033;-60
2023/04/14 09:42:59;;;;;;;11.15;2.72;;;9.80;99.90;;;;;;5043273;28;20067;-61
2023/04/14 09:45:44;;;;;;;7.45;2.40;;;9.80;99.90;;;;;;5029817;28;20064;-61
2023/04/14 09:48:12;;;;;;;9.15;2.88;;;10.00;99.90;;;;;;5046753;28;20145;-61
2023/04/14 09:51:05;;;;;;;13.27;2.67;;;10.40;99.90;;;;;;5048431;28;20025;-60
2023/04/14 09:53:33;;;;;;;8.85;2.20;;;10.80;99.90;;;;;;5048579;28;20151;-62
2023/04/14 09:56:01;;;;;;;14.13;2.60;;;11.00;99.90;;;;;;5051186;28;20037;-64
2023/04/14 09:58:34;;;;;;;11.32;3.15;;;11.30;99.90;;;;;;5048970;28;20041;-63
2023/04/14 10:01:03;;;;;;;7.43;2.10;;;11.50;99.90;;;;;;5047551;28;20053;-63
2023/04/14 10:03:39;;;;;;;8.95;2.53;;;11.70;99.90;;;;;;5039220;28;20029;-66
2023/04/14 10:06:14;;;;;;;10.00;3.20;;;11.70;99.90;;;;;;5047872;28;20029;-67
2023/04/14 10:08:42;;;;;;;8.43;2.67;;;11.70;99.90;;;;;;5047044;28;20055;-63
2023/04/14 10:11:16;;;;;;;6.53;2.10;;;11.60;99.90;;;;;;5050555;28;20032;-62
2023/04/14 10:13:42;;;;;;;6.32;2.30;;;11.30;99.90;;;;;;5043330;28;20494;-65
2023/04/14 10:16:08;;;;;;;7.45;2.40;;;10.80;99.90;;;;;;5048160;28;20548;-64
2023/04/14 10:18:34;;;;;;;8.05;2.20;;;10.80;99.90;;;;;;5046136;28;20044;-64
2023/04/14 10:21:00;;;;;;;10.95;2.13;;;11.00;99.90;;;;;;5048828;28;20047;-61
2023/04/14 10:23:26;;;;;;;8.25;2.25;;;11.10;99.90;;;;;;5046320;28;20037;-62
2023/04/14 10:25:54;;;;;;;8.93;2.70;;;11.00;99.90;;;;;;5042746;28;20200;-61
2023/04/14 10:28:21;;;;;;;7.38;2.10;;;11.10;99.90;;;;;;5035805;28;20056;-60
2023/04/14 10:30:49;;;;;;;10.60;2.70;;;11.10;99.90;;;;;;5043401;28;20566;-60
2023/04/14 10:33:14;;;;;;;8.73;2.13;;;11.20;99.90;;;;;;5045020;28;20548;-60
2023/04/14 10:35:46;;;;;;;13.05;2.28;;;11.20;99.90;;;;;;5035036;28;20025;-61
2023/04/14 10:38:13;;;;;;;9.38;2.45;;;11.50;99.90;;;;;;5048646;28;20037;-61
2023/04/14 10:40:50;;;;;;;11.00;1.88;;;11.80;99.90;;;;;;5048655;28;20039;-59
2023/04/14 10:43:16;;;;;;;8.07;2.10;;;11.90;99.90;;;;;;5048600;28;20104;-60
2023/04/14 10:45:55;;;;;;;6.07;2.75;;;11.90;99.90;;;;;;5048758;28;20175;-61
2023/04/14 10:48:25;;;;;;;8.73;2.38;;;11.50;99.90;;;;;;5047878;28;20425;-60
2023/04/14 10:50:57;;;;;;;11.63;2.38;;;11.20;99.90;;;;;;5048980;28;20045;-59
2023/04/14 10:53:25;;;;;;;14.50;2.30;;;11.00;99.90;;;;;;5034670;28;20706;-61
2023/04/14 10:55:53;;;;;;;7.82;2.42;;;10.90;99.90;;;;;;5038147;28;20025;-60
2023/04/14 10:58:22;;;;;;;11.43;2.20;;;10.70;99.90;;;;;;5045960;28;20064;-63
2023/04/14 11:00:48;;;;;;;10.15;2.33;;;10.60;99.90;;;;;;5029954;28;20462;-61
2023/04/14 11:03:17;;;;;;;8.13;1.95;;;10.50;99.90;;;;;;5043541;28;20039;-61
2023/04/14 11:05:43;;;;;;;6.38;1.90;;;10.50;99.90;;;;;;5048606;28;20466;-62
2023/04/14 11:08:14;;;;;;;9.40;2.08;;;10.40;99.90;;;;;;5045990;28;20036;-62
2023/04/14 11:10:45;;;;;;;12.60;2.40;;;10.40;99.90;;;;;;5045405;28;20033;-62
2023/04/14 11:13:11;;;;;;;13.52;2.85;;;10.40;99.90;;;;;;5047455;28;20032;-61
2023/04/14 11:15:56;;;;;;;13.73;2.20;;;10.40;99.90;;;;;;5049763;28;20032;-61
2023/04/14 11:18:42;;;;;;;10.68;2.47;;;10.20;99.90;;;;;;5033142;28;20511;-60
2023/04/14 11:21:13;;;;;;;9.27;2.22;;;10.10;99.90;;;;;;5042184;28;20030;-62
2023/04/14 11:23:40;;;;;;;7.95;2.28;;;10.20;99.90;;;;;;5041066;28;20481;-63
2023/04/14 11:26:07;;;;;;;5.03;2.10;;;10.30;99.90;;;;;;5052654;28;20111;-68
2023/04/14 11:28:35;;;;;;;6.22;2.00;;;10.40;99.90;;;;;;5048587;28;20036;-62
2023/04/14 11:31:04;;;;;;;10.20;2.50;;;10.50;99.90;;;;;;5047537;28;20025;-62
2023/04/14 11:33:35;;;;;;;9.90;2.40;;;10.60;99.90;;;;;;5043621;28;20029;-63
2023/04/14 11:36:03;;;;;;;7.20;2.30;;;10.50;99.90;;;;;;5031855;28;20500;-63
2023/04/14 11:38:29;;;;;;;11.32;2.22;;;10.60;99.90;;;;;;5050694;28;20099;-64
2023/04/14 11:40:55;;;;;;;8.52;2.35;;;10.70;99.90;;;;;;5048010;28;20504;-62
2023/04/14 11:43:21;;;;;;;8.27;2.00;;;10.60;99.90;;;;;;5046162;28;20080;-63
2023/04/14 11:45:48;;;;;;;9.85;2.17;;;10.60;99.90;;;;;;5047385;28;20020;-63
2023/04/14 11:48:18;;;;;;;11.07;2.10;;;10.60;99.90;;;;;;5047669;28;21853;-63
2023/04/14 11:50:46;;;;;;;12.57;2.03;;;10.70;99.90;;;;;;5037698;28;20379;-63
2023/04/14 11:53:16;;;;;;;7.22;2.00;;;10.70;99.90;;;;;;5043005;28;20037;-62
2023/04/14 11:55:44;;;;;;;11.15;1.85;;;10.80;99.90;;;;;;5054094;28;20136;-63
2023/04/14 11:58:13;;;;;;;7.97;2.15;;;10.90;99.90;;;;;;5036603;28;20153;-60
2023/04/14 12:00:39;;;;;;;8.13;2.17;;;10.90;99.90;;;;;;5046448;28;20025;-61
2023/04/14 12:03:06;;;;;;;9.82;2.53;;;10.90;99.90;;;;;;5044986;28;20116;-61
2023/04/14 12:05:33;;;;;;;6.35;1.80;;;10.90;99.90;;;;;;5049369;28;20028;-61
2023/04/14 12:08:07;;;;;;;8.13;1.88;;;10.90;99.90;;;;;;5048079;28;20119;-61
2023/04/14 12:10:34;;;;;;;9.23;1.98;;;11.00;99.90;;;;;;5028246;28;20087;-62
2023/04/14 12:13:08;;;;;;;8.30;2.10;;;11.00;99.90;;;;;;5044844;28;20746;-61
2023/04/14 12:15:40;;;;;;;10.45;2.00;;;11.00;99.90;;;;;;5030158;28;20028;-61
2023/04/14 12:18:12;;;;;;;6.63;1.90;;;11.00;99.90;;;;;;5040857;28;20062;-62
2023/04/14 12:20:41;;;;;;;9.95;3.35;;;11.00;99.90;;;;;;5046662;28;20060;-61
2023/04/14 12:23:07;;;;;;;6.30;2.13;;;11.10;99.90;;;;;;5045453;28;20373;-61
2023/04/14 12:25:33;;;;;;;7.32;1.95;;;11.20;99.90;;;;;;5043498;28;20036;-61
2023/04/14 12:28:05;;;;;;;9.90;2.47;;;11.40;99.90;;;;;;5047549;28;20039;-61
2023/04/14 12:30:35;;;;;;;9.30;2.15;;;11.60;99.90;;;;;;5028207;28;20026;-61
2023/04/14 12:33:11;;;;;;;5.95;1.95;;;11.90;99.90;;;;;;5028288;28;20035;-63
2023/04/14 12:35:38;;;;;;;5.80;1.90;;;12.40;99.90;;;;;;5047751;28;20029;-63
2023/04/14 12:38:13;;;;;;;5.32;2.25;;;12.90;99.90;;;;;;5047076;28;20087;-61
2023/04/14 12:40:44;;;;;;;4.85;1.88;;;13.20;99.90;;;;;;5042062;28;20025;-61
2023/04/14 12:43:11;;;;;;;5.00;1.98;;;12.90;99.90;;;;;;5046594;28;20037;-62
2023/04/14 12:45:44;;;;;;;7.05;1.50;;;13.00;99.90;;;;;;5046703;28;20706;-62
2023/04/14 12:48:12;;;;;;;10.10;2.28;;;12.90;99.90;;;;;;5044735;28;20040;-61
2023/04/14 12:50:38;;;;;;;8.65;2.10;;;12.70;99.90;;;;;;5043934;28;20060;-62
2023/04/14 12:53:27;;;;;;;5.63;1.80;;;12.70;99.90;;;;;;5046342;28;20389;-62